Time;durP1;ratioP1;P1;durP2;ratioP2;P2;SDS_P1;SDS_P2;PMS_P1;PMS_P2;Temp;Humidity;BMP_temperature;BMP_pressure;BME280_temperature;BME280_humidity;BME280_pressure;Samples;Min_cycle;Max_cycle;Signal;HPM_P1;HPM_P2
2023/06/10 00:00:22;;;;;;;5.82;5.13;;;;;27.70;101381.00;;;;5087599;28;20608;-81
2023/06/10 00:02:49;;;;;;;8.73;5.60;;;;;27.60;101379.00;;;;5087796;28;20739;-80
2023/06/10 00:05:21;;;;;;;5.22;4.82;;;;;27.60;101373.00;;;;5088563;28;20203;-80
2023/06/10 00:07:49;;;;;;;7.82;4.97;;;;;27.60;101379.00;;;;5088520;28;20297;-80
2023/06/10 00:10:16;;;;;;;8.40;5.45;;;;;27.50;101375.00;;;;5088637;28;20219;-80
2023/06/10 00:12:43;;;;;;;6.32;5.00;;;;;27.50;101377.00;;;;5088776;28;20198;-80
2023/06/10 00:15:11;;;;;;;5.65;5.15;;;;;27.50;101383.00;;;;5088201;28;20193;-81
2023/06/10 00:17:39;;;;;;;6.82;5.38;;;;;27.40;101380.00;;;;5067947;28;20688;-80
2023/06/10 00:20:09;;;;;;;5.57;5.07;;;;;27.40;101385.00;;;;5068567;28;20202;-81
2023/06/10 00:22:39;;;;;;;5.53;4.95;;;;;27.30;101383.00;;;;5087388;28;20335;-80
2023/06/10 00:25:07;;;;;;;5.63;5.03;;;;;27.30;101392.00;;;;5088196;28;20586;-81
2023/06/10 00:27:35;;;;;;;5.32;4.57;;;;;27.30;101380.00;;;;5087569;28;20723;-81
2023/06/10 00:30:04;;;;;;;5.32;4.82;;;;;27.30;101388.00;;;;5088943;28;20194;-80
2023/06/10 00:32:31;;;;;;;5.78;4.70;;;;;27.30;101387.00;;;;5087765;28;20693;-80
2023/06/10 00:34:58;;;;;;;5.35;4.85;;;;;27.20;101386.00;;;;5088657;28;20641;-81
2023/06/10 00:37:26;;;;;;;5.28;4.63;;;;;27.20;101393.00;;;;5088683;28;20201;-80
2023/06/10 00:39:54;;;;;;;5.95;4.60;;;;;27.20;101390.00;;;;5087809;28;20194;-80
2023/06/10 00:42:23;;;;;;;6.72;4.80;;;;;27.10;101388.00;;;;5087887;28;20217;-80
2023/06/10 00:44:51;;;;;;;6.97;4.93;;;;;27.10;101389.00;;;;5088535;28;20226;-80
2023/06/10 00:47:19;;;;;;;7.28;4.75;;;;;27.10;101387.00;;;;5088490;28;20190;-80
2023/06/10 00:49:47;;;;;;;6.63;4.68;;;;;27.10;101394.00;;;;5088139;28;20616;-80
2023/06/10 00:52:16;;;;;;;5.47;4.68;;;;;27.00;101394.00;;;;5088249;28;20237;-80
2023/06/10 00:54:44;;;;;;;6.53;4.95;;;;;27.00;101389.00;;;;5088287;28;20206;-80
2023/06/10 00:57:14;;;;;;;5.55;4.55;;;;;27.00;101395.00;;;;5088009;28;20192;-80
2023/06/10 00:59:41;;;;;;;5.13;4.63;;;;;27.00;101389.00;;;;5087376;28;20307;-81
2023/06/10 01:02:09;;;;;;;4.72;4.22;;;;;27.00;101392.00;;;;5088158;28;20218;-80
2023/06/10 01:04:36;;;;;;;5.90;4.65;;;;;26.90;101385.00;;;;5087790;28;20581;-80
2023/06/10 01:07:15;;;;;;;5.82;4.63;;;;;26.80;101392.00;;;;5087652;28;20308;-80
2023/06/10 01:09:49;;;;;;;5.00;4.50;;;;;26.80;101392.00;;;;5089070;28;20198;-80
2023/06/10 01:12:27;;;;;;;6.57;3.97;;;;;26.80;101393.00;;;;5087873;28;20559;-80
2023/06/10 01:14:56;;;;;;;4.65;4.20;;;;;26.80;101393.00;;;;5087510;28;20207;-80
2023/06/10 01:17:23;;;;;;;5.18;4.28;;;;;26.80;101391.00;;;;5087585;28;20209;-80
2023/06/10 01:19:56;;;;;;;5.03;4.47;;;;;26.70;101391.00;;;;5087984;28;20199;-80
2023/06/10 01:22:25;;;;;;;7.55;4.40;;;;;26.70;101392.00;;;;5087044;28;20206;-80
2023/06/10 01:24:53;;;;;;;7.45;4.88;;;;;26.70;101392.00;;;;5087486;28;20289;-80
2023/06/10 01:27:23;;;;;;;7.22;4.38;;;;;26.60;101389.00;;;;5087443;28;20244;-81
2023/06/10 01:29:55;;;;;;;7.07;4.70;;;;;26.60;101389.00;;;;5088027;28;20206;-81
2023/06/10 01:32:33;;;;;;;4.50;3.75;;;;;26.50;101392.00;;;;5087455;28;20584;-80
2023/06/10 01:35:02;;;;;;;5.30;4.35;;;;;26.60;101394.00;;;;5087502;28;20595;-80
2023/06/10 01:37:31;;;;;;;5.45;4.40;;;;;26.50;101395.00;;;;5088265;28;20206;-80
2023/06/10 01:40:00;;;;;;;4.50;3.85;;;;;26.50;101393.00;;;;5090442;28;20596;-80
2023/06/10 01:42:28;;;;;;;4.72;3.85;;;;;26.50;101395.00;;;;5090374;28;20202;-80
2023/06/10 01:44:55;;;;;;;5.60;4.28;;;;;26.40;101388.00;;;;5089156;28;20202;-80
2023/06/10 01:47:22;;;;;;;6.57;4.25;;;;;26.40;101390.00;;;;5089114;28;20209;-80
2023/06/10 01:49:49;;;;;;;7.57;4.15;;;;;26.40;101393.00;;;;5090267;28;20201;-80
2023/06/10 01:52:17;;;;;;;5.50;3.65;;;;;26.40;101391.00;;;;5089887;28;20222;-80
2023/06/10 01:54:46;;;;;;;4.80;3.90;;;;;26.40;101390.00;;;;5089539;28;20664;-80
2023/06/10 01:57:13;;;;;;;6.90;3.90;;;;;26.30;101391.00;;;;5070941;28;20221;-80
2023/06/10 01:59:42;;;;;;;4.47;4.05;;;;;26.30;101390.00;;;;5078480;28;20676;-80
2023/06/10 02:02:09;;;;;;;4.82;3.70;;;;;26.30;101393.00;;;;5090290;28;20206;-80
2023/06/10 02:04:36;;;;;;;4.13;3.72;;;;;26.30;101383.00;;;;5091077;28;20603;-79
2023/06/10 02:07:05;;;;;;;4.18;3.67;;;;;26.30;101388.00;;;;5090173;28;20205;-80
2023/06/10 02:09:34;;;;;;;3.90;3.42;;;;;26.20;101389.00;;;;5090830;28;20198;-81
2023/06/10 02:12:04;;;;;;;5.50;3.58;;;;;26.20;101388.00;;;;5090085;28;20225;-80
2023/06/10 02:14:33;;;;;;;5.35;3.97;;;;;26.20;101383.00;;;;5089968;28;20202;-80
2023/06/10 02:17:01;;;;;;;5.13;3.80;;;;;26.20;101380.00;;;;5090153;28;20209;-81
2023/06/10 02:19:28;;;;;;;5.28;3.95;;;;;26.10;101390.00;;;;5088488;28;20194;-80
2023/06/10 02:21:55;;;;;;;5.18;3.92;;;;;26.10;101390.00;;;;5089723;28;20557;-80
2023/06/10 02:24:22;;;;;;;5.63;3.97;;;;;26.10;101396.00;;;;5089317;28;20652;-80
2023/06/10 02:26:51;;;;;;;6.20;3.80;;;;;26.10;101401.00;;;;5089299;28;20194;-80
2023/06/10 02:29:20;;;;;;;5.43;3.72;;;;;26.00;101404.00;;;;5089081;28;20576;-79
2023/06/10 02:31:47;;;;;;;5.88;3.70;;;;;26.00;101397.00;;;;5090956;28;20228;-81
2023/06/10 02:34:15;;;;;;;5.82;3.97;;;;;26.00;101398.00;;;;5089759;28;20238;-80
2023/06/10 02:36:43;;;;;;;4.03;3.58;;;;;26.00;101401.00;;;;5089118;28;20564;-80
2023/06/10 02:39:13;;;;;;;4.10;3.70;;;;;26.00;101406.00;;;;5089407;28;20206;-80
2023/06/10 02:41:40;;;;;;;5.70;3.33;;;;;25.90;101402.00;;;;5089328;28;20208;-81
2023/06/10 02:44:07;;;;;;;5.88;3.50;;;;;25.90;101410.00;;;;5088693;28;20202;-80
2023/06/10 02:46:36;;;;;;;5.72;3.75;;;;;25.90;101398.00;;;;5087669;28;20320;-81
2023/06/10 02:49:03;;;;;;;5.65;4.13;;;;;25.90;101400.00;;;;5088681;28;20222;-80
2023/06/10 02:51:30;;;;;;;4.45;3.63;;;;;25.90;101400.00;;;;5087867;28;20225;-81
2023/06/10 02:53:58;;;;;;;4.97;3.70;;;;;25.80;101402.00;;;;5088620;28;20206;-81
2023/06/10 02:56:25;;;;;;;6.00;3.75;;;;;25.80;101409.00;;;;5088492;28;20195;-81
2023/06/10 02:58:53;;;;;;;9.77;3.78;;;;;25.80;101399.00;;;;5089625;28;20319;-81
2023/06/10 03:01:20;;;;;;;4.47;3.58;;;;;25.70;101403.00;;;;5089161;28;20214;-81
2023/06/10 03:03:50;;;;;;;8.63;3.60;;;;;25.70;101395.00;;;;5089312;28;20191;-81
2023/06/10 03:06:18;;;;;;;4.20;3.67;;;;;25.70;101399.00;;;;5088499;28;20206;-81
2023/06/10 03:08:45;;;;;;;4.38;3.50;;;;;25.70;101391.00;;;;5089348;28;20694;-80
2023/06/10 03:11:13;;;;;;;3.97;3.17;;;;;25.70;101400.00;;;;5089524;28;20631;-79
2023/06/10 03:13:40;;;;;;;5.88;3.50;;;;;25.60;101398.00;;;;5089305;28;20194;-79
2023/06/10 03:16:07;;;;;;;5.93;3.88;;;;;25.60;101406.00;;;;5089187;28;20573;-79
2023/06/10 03:18:35;;;;;;;4.28;3.47;;;;;25.60;101404.00;;;;5089280;28;20198;-79
2023/06/10 03:21:03;;;;;;;6.43;3.65;;;;;25.60;101405.00;;;;5089857;28;20202;-79
2023/06/10 03:23:31;;;;;;;4.78;3.42;;;;;25.60;101410.00;;;;5088750;28;20675;-80
2023/06/10 03:26:00;;;;;;;4.30;3.50;;;;;25.60;101411.00;;;;5089642;28;20194;-81
2023/06/10 03:28:27;;;;;;;3.90;3.15;;;;;25.50;101411.00;;;;5089190;28;20255;-80
2023/06/10 03:30:55;;;;;;;4.87;3.77;;;;;25.50;101410.00;;;;5088427;28;20221;-80
2023/06/10 03:33:22;;;;;;;6.50;3.60;;;;;25.50;101408.00;;;;5089141;28;20496;-80
2023/06/10 03:35:50;;;;;;;3.90;2.92;;;;;25.50;101416.00;;;;5089000;28;20213;-81
2023/06/10 03:38:18;;;;;;;4.32;3.90;;;;;25.50;101417.00;;;;5088949;28;20239;-81
2023/06/10 03:40:46;;;;;;;7.47;3.42;;;;;25.40;101419.00;;;;5088951;28;20202;-81
2023/06/10 03:43:13;;;;;;;3.80;3.22;;;;;25.40;101421.00;;;;5088809;28;20688;-80
2023/06/10 03:45:40;;;;;;;4.88;3.28;;;;;25.40;101422.00;;;;5089231;28;20202;-81
2023/06/10 03:48:09;;;;;;;5.03;3.92;;;;;25.40;101416.00;;;;5088733;28;20282;-80
2023/06/10 03:50:36;;;;;;;6.07;3.75;;;;;25.40;101420.00;;;;5088667;28;20213;-80
2023/06/10 03:53:04;;;;;;;6.18;3.78;;;;;25.30;101416.00;;;;5088748;28;20260;-81
2023/06/10 03:55:32;;;;;;;4.88;3.83;;;;;25.30;101425.00;;;;5088737;28;20209;-80
2023/06/10 03:58:00;;;;;;;7.78;4.03;;;;;25.30;101428.00;;;;5088592;28;20217;-80
2023/06/10 04:00:28;;;;;;;5.70;3.78;;;;;25.30;101417.00;;;;5088626;28;20209;-81
2023/06/10 04:02:57;;;;;;;4.57;3.50;;;;;25.30;101423.00;;;;5088101;28;20323;-81
2023/06/10 04:05:25;;;;;;;4.05;3.38;;;;;25.30;101421.00;;;;5088794;28;20668;-81
2023/06/10 04:07:53;;;;;;;5.05;4.00;;;;;25.30;101425.00;;;;5089206;28;20198;-80
2023/06/10 04:10:20;;;;;;;5.55;4.32;;;;;25.30;101429.00;;;;5088117;28;20709;-80
2023/06/10 04:12:49;;;;;;;6.10;4.40;;;;;25.20;101421.00;;;;5088224;28;20730;-81
2023/06/10 04:15:16;;;;;;;5.38;3.42;;;;;25.20;101423.00;;;;5089211;28;20574;-81
2023/06/10 04:17:44;;;;;;;5.88;3.72;;;;;25.20;101428.00;;;;5088804;28;20247;-80
2023/06/10 04:20:11;;;;;;;5.35;3.85;;;;;25.20;101420.00;;;;5087947;28;20206;-81
2023/06/10 04:22:38;;;;;;;7.63;3.55;;;;;25.20;101424.00;;;;5087438;28;20213;-81
2023/06/10 04:25:07;;;;;;;4.80;3.50;;;;;25.20;101432.00;;;;5087578;28;20538;-81
2023/06/10 04:27:34;;;;;;;4.82;3.63;;;;;25.20;101435.00;;;;5087597;28;20202;-81
2023/06/10 04:30:04;;;;;;;5.25;3.88;;;;;25.20;101442.00;;;;5086874;28;20202;-80
2023/06/10 04:32:31;;;;;;;5.55;3.65;;;;;25.20;101441.00;;;;5086885;28;20313;-81
2023/06/10 04:34:58;;;;;;;5.82;3.50;;;;;25.30;101441.00;;;;5088028;28;20202;-80
2023/06/10 04:37:25;;;;;;;6.00;3.42;;;;;25.30;101446.00;;;;5086940;28;20683;-80
2023/06/10 04:39:53;;;;;;;4.70;3.78;;;;;25.30;101445.00;;;;5088024;28;20209;-81
2023/06/10 04:42:20;;;;;;;4.78;3.33;;;;;25.30;101448.00;;;;5088391;28;20205;-81
2023/06/10 04:44:47;;;;;;;4.28;3.22;;;;;25.30;101448.00;;;;5088411;28;20558;-81
2023/06/10 04:47:17;;;;;;;4.25;3.15;;;;;25.30;101454.00;;;;5087862;28;20186;-81
2023/06/10 04:49:44;;;;;;;5.18;3.88;;;;;25.30;101449.00;;;;5088539;28;20194;-81
2023/06/10 04:52:12;;;;;;;3.55;3.15;;;;;25.30;101451.00;;;;5079363;28;20603;-81
2023/06/10 04:54:39;;;;;;;6.22;3.42;;;;;25.40;101451.00;;;;5088253;28;20691;-81
2023/06/10 04:57:08;;;;;;;6.55;3.63;;;;;25.40;101461.00;;;;5075087;28;20210;-81
2023/06/10 04:59:37;;;;;;;6.38;3.33;;;;;25.40;101457.00;;;;5067156;28;20680;-80
2023/06/10 05:02:05;;;;;;;5.28;3.80;;;;;25.40;101460.00;;;;5068577;28;20231;-80
2023/06/10 05:04:33;;;;;;;4.30;3.50;;;;;25.40;101459.00;;;;5071398;28;20210;-81
2023/06/10 05:07:01;;;;;;;7.25;4.30;;;;;25.50;101456.00;;;;5088186;28;20229;-81
2023/06/10 05:09:28;;;;;;;4.80;3.55;;;;;25.50;101452.00;;;;5087846;28;20202;-81
2023/06/10 05:11:56;;;;;;;6.45;3.90;;;;;25.50;101456.00;;;;5087795;28;20237;-82
2023/06/10 05:14:23;;;;;;;6.90;4.25;;;;;25.50;101454.00;;;;5082820;28;20210;-80
2023/06/10 05:16:50;;;;;;;6.35;4.25;;;;;25.60;101456.00;;;;5092260;28;20198;-81
2023/06/10 05:19:18;;;;;;;4.75;3.28;;;;;25.60;101459.00;;;;5091848;28;20209;-81
2023/06/10 05:21:47;;;;;;;5.97;3.92;;;;;25.60;101455.00;;;;5091677;28;20285;-81
2023/06/10 05:24:14;;;;;;;4.53;3.50;;;;;25.70;101463.00;;;;5092278;28;20202;-83
2023/06/10 05:26:41;;;;;;;4.22;3.33;;;;;25.70;101452.00;;;;5091336;28;20205;-80
2023/06/10 05:29:09;;;;;;;5.78;4.05;;;;;25.70;101455.00;;;;5090291;28;20575;-80
2023/06/10 05:31:37;;;;;;;3.90;3.40;;;;;25.70;101456.00;;;;5090514;28;20429;-80
2023/06/10 05:34:04;;;;;;;5.50;4.15;;;;;25.80;101453.00;;;;5091138;28;20218;-80
2023/06/10 05:36:32;;;;;;;5.93;3.80;;;;;25.80;101460.00;;;;5091567;28;20285;-80
2023/06/10 05:39:00;;;;;;;5.18;3.60;;;;;25.90;101462.00;;;;5085876;28;20213;-79
2023/06/10 05:41:28;;;;;;;4.13;3.55;;;;;25.90;101458.00;;;;5090432;28;20186;-80
2023/06/10 05:43:55;;;;;;;6.03;3.92;;;;;25.90;101465.00;;;;5092064;28;20210;-80
2023/06/10 05:46:22;;;;;;;5.22;4.35;;;;;26.00;101458.00;;;;5086508;28;20195;-79
2023/06/10 05:48:49;;;;;;;6.28;3.83;;;;;26.00;101465.00;;;;5091761;28;20217;-80
2023/06/10 05:51:17;;;;;;;5.20;3.13;;;;;26.10;101466.00;;;;5090727;28;20209;-79
2023/06/10 05:53:46;;;;;;;5.97;3.95;;;;;26.10;101459.00;;;;5091188;28;20214;-80
2023/06/10 05:56:14;;;;;;;5.57;3.72;;;;;26.20;101467.00;;;;5090896;28;20557;-79
2023/06/10 05:58:42;;;;;;;5.85;3.53;;;;;26.30;101465.00;;;;5091336;28;20581;-80
2023/06/10 06:01:09;;;;;;;3.63;3.30;;;;;26.30;101468.00;;;;5091044;28;20218;-80
2023/06/10 06:03:36;;;;;;;4.18;3.53;;;;;26.40;101464.00;;;;5091078;28;20492;-80
2023/06/10 06:06:04;;;;;;;5.90;3.35;;;;;26.40;101463.00;;;;5091014;28;20217;-79
2023/06/10 06:08:31;;;;;;;4.57;3.50;;;;;26.50;101466.00;;;;5090988;28;20222;-80
2023/06/10 06:10:59;;;;;;;5.10;3.33;;;;;26.60;101470.00;;;;5091296;28;20201;-80
2023/06/10 06:13:27;;;;;;;4.57;3.67;;;;;26.60;101463.00;;;;5089185;28;20256;-81
2023/06/10 06:15:55;;;;;;;8.57;4.55;;;;;26.70;101465.00;;;;5088644;28;20209;-79
2023/06/10 06:18:22;;;;;;;5.10;3.80;;;;;26.80;101468.00;;;;5090384;28;20206;-79
2023/06/10 06:20:50;;;;;;;7.85;3.88;;;;;26.90;101461.00;;;;5090170;28;20544;-79
2023/06/10 06:23:17;;;;;;;12.38;4.18;;;;;26.90;101466.00;;;;5081460;28;20213;-79
2023/06/10 06:25:45;;;;;;;4.57;3.70;;;;;27.00;101466.00;;;;5090240;28;20296;-79
2023/06/10 06:28:12;;;;;;;6.63;4.00;;;;;27.00;101462.00;;;;5088862;28;20209;-79
2023/06/10 06:30:41;;;;;;;5.78;3.97;;;;;27.10;101460.00;;;;5088073;28;20210;-78
2023/06/10 06:33:08;;;;;;;4.47;3.28;;;;;27.20;101459.00;;;;5087072;28;20739;-79
2023/06/10 06:35:35;;;;;;;4.47;3.35;;;;;27.20;101462.00;;;;5086612;28;20222;-79
2023/06/10 06:38:03;;;;;;;4.82;3.33;;;;;27.30;101459.00;;;;5088193;28;20198;-79
2023/06/10 06:40:31;;;;;;;4.50;3.75;;;;;27.40;101462.00;;;;5084802;28;20637;-79
2023/06/10 06:42:58;;;;;;;4.43;3.20;;;;;27.50;101461.00;;;;5088830;28;20744;-79
2023/06/10 06:45:25;;;;;;;5.80;3.60;;;;;27.50;101459.00;;;;5089503;28;20637;-79
2023/06/10 06:47:55;;;;;;;6.53;3.75;;;;;27.60;101455.00;;;;5089256;28;20748;-80
2023/06/10 06:50:22;;;;;;;4.45;3.33;;;;;27.70;101470.00;;;;5089658;28;20275;-81
2023/06/10 06:52:50;;;;;;;4.65;3.85;;;;;27.80;101470.00;;;;5089415;28;20244;-79
2023/06/10 06:55:17;;;;;;;5.60;3.58;;;;;27.90;101473.00;;;;5089412;28;20199;-79
2023/06/10 06:57:45;;;;;;;4.03;3.03;;;;;28.00;101478.00;;;;5090080;28;20203;-80
2023/06/10 07:00:13;;;;;;;7.47;4.03;;;;;28.00;101470.00;;;;5090035;28;20194;-80
2023/06/10 07:02:40;;;;;;;5.53;3.72;;;;;28.10;101476.00;;;;5089637;28;20233;-80
2023/06/10 07:05:09;;;;;;;5.30;3.53;;;;;28.20;101471.00;;;;5077707;28;20207;-79
2023/06/10 07:07:37;;;;;;;5.40;3.38;;;;;28.30;101477.00;;;;5069195;28;20824;-81
2023/06/10 07:10:04;;;;;;;8.80;4.22;;;;;28.30;101478.00;;;;5069640;28;20187;-80
2023/06/10 07:12:32;;;;;;;5.75;3.88;;;;;28.40;101476.00;;;;5089049;28;20217;-80
2023/06/10 07:14:59;;;;;;;4.63;3.58;;;;;28.50;101486.00;;;;5089923;28;20198;-81
2023/06/10 07:17:27;;;;;;;4.13;3.42;;;;;28.60;101482.00;;;;5088832;28;20213;-79
2023/06/10 07:19:57;;;;;;;6.55;3.10;;;;;28.70;101484.00;;;;5089629;28;20190;-79
2023/06/10 07:22:26;;;;;;;3.70;3.30;;;;;28.70;101482.00;;;;5089097;28;20297;-80
2023/06/10 07:24:55;;;;;;;9.55;3.80;;;;;28.80;101486.00;;;;5089200;28;20698;-80
2023/06/10 07:27:22;;;;;;;4.80;3.38;;;;;28.90;101490.00;;;;5088494;28;20202;-80
2023/06/10 07:29:49;;;;;;;4.50;3.20;;;;;29.00;101491.00;;;;5089046;28;20202;-81
2023/06/10 07:32:17;;;;;;;5.47;3.63;;;;;29.10;101491.00;;;;5088420;28;20198;-79
2023/06/10 07:34:44;;;;;;;4.22;3.72;;;;;29.20;101494.00;;;;5088955;28;20230;-80
2023/06/10 07:37:11;;;;;;;6.13;3.58;;;;;29.20;101494.00;;;;5088195;28;20195;-80
2023/06/10 07:39:40;;;;;;;5.97;3.40;;;;;29.30;101497.00;;;;5087228;28;20319;-79
2023/06/10 07:42:08;;;;;;;4.10;3.13;;;;;29.50;101493.00;;;;5080312;28;20683;-79
2023/06/10 07:44:35;;;;;;;6.63;3.42;;;;;29.60;101491.00;;;;5085347;28;20197;-80
2023/06/10 07:47:03;;;;;;;5.32;3.63;;;;;29.70;101498.00;;;;5082235;28;20203;-79
2023/06/10 07:49:30;;;;;;;5.90;3.47;;;;;29.80;101497.00;;;;5081753;28;20660;-79
2023/06/10 07:51:58;;;;;;;3.95;2.80;;;;;29.90;101496.00;;;;5088595;28;20202;-79
2023/06/10 07:54:25;;;;;;;6.15;3.30;;;;;30.00;101494.00;;;;5087857;28;20222;-79
2023/06/10 07:56:53;;;;;;;4.30;3.50;;;;;30.10;101499.00;;;;5088864;28;20213;-80
2023/06/10 07:59:21;;;;;;;5.13;3.55;;;;;30.20;101497.00;;;;5072586;28;20202;-80
2023/06/10 08:01:48;;;;;;;5.93;3.25;;;;;30.30;101500.00;;;;5068794;28;20219;-79
2023/06/10 08:04:15;;;;;;;3.92;3.30;;;;;30.40;101500.00;;;;5080646;28;20198;-79
2023/06/10 08:06:43;;;;;;;4.30;3.63;;;;;30.50;101502.00;;;;5088453;28;20199;-79
2023/06/10 08:09:10;;;;;;;5.93;4.00;;;;;30.60;101500.00;;;;5087606;28;20197;-79
2023/06/10 08:11:37;;;;;;;4.57;3.53;;;;;30.70;101491.00;;;;5087825;28;20728;-79
2023/06/10 08:14:06;;;;;;;5.03;3.58;;;;;30.70;101498.00;;;;5088749;28;20711;-80
2023/06/10 08:16:33;;;;;;;5.55;4.00;;;;;30.80;101501.00;;;;5087813;28;20194;-80
2023/06/10 08:19:00;;;;;;;6.30;3.33;;;;;30.90;101496.00;;;;5088228;28;20197;-79
2023/06/10 08:21:28;;;;;;;4.78;3.50;;;;;31.00;101499.00;;;;5086896;28;20202;-80
2023/06/10 08:23:56;;;;;;;3.85;3.40;;;;;31.10;101494.00;;;;5088404;28;20251;-80
2023/06/10 08:26:23;;;;;;;7.28;3.55;;;;;31.20;101493.00;;;;5086204;28;20714;-81
2023/06/10 08:28:50;;;;;;;5.68;3.35;;;;;31.30;101492.00;;;;5087254;28;20202;-79
2023/06/10 08:31:19;;;;;;;4.05;3.38;;;;;31.40;101500.00;;;;5087613;28;20209;-80
2023/06/10 08:33:46;;;;;;;3.42;3.13;;;;;31.60;101501.00;;;;5084009;28;20806;-80
2023/06/10 08:36:13;;;;;;;5.82;3.47;;;;;31.60;101498.00;;;;5086788;28;20362;-80
2023/06/10 08:38:41;;;;;;;5.35;3.80;;;;;31.70;101502.00;;;;5086493;28;20208;-81
2023/06/10 08:41:10;;;;;;;4.35;3.60;;;;;31.80;101502.00;;;;5084123;28;20243;-82
2023/06/10 08:43:42;;;;;;;7.22;3.70;;;;;31.90;101499.00;;;;5087712;28;20285;-81
2023/06/10 08:46:11;;;;;;;4.00;3.13;;;;;32.00;101503.00;;;;5086816;28;20195;-81
2023/06/10 08:48:44;;;;;;;5.72;3.67;;;;;32.10;101502.00;;;;5090532;28;20202;-82
2023/06/10 08:51:12;;;;;;;4.35;2.97;;;;;32.30;101508.00;;;;5089656;28;20593;-82
2023/06/10 08:53:47;;;;;;;4.75;3.03;;;;;32.40;101511.00;;;;5091741;28;20225;-82
2023/06/10 08:56:15;;;;;;;3.72;3.35;;;;;32.50;101503.00;;;;5071829;28;20190;-83
2023/06/10 08:58:43;;;;;;;4.60;3.28;;;;;32.60;101494.00;;;;5086593;28;20202;-82
2023/06/10 09:01:11;;;;;;;3.08;2.78;;;;;32.70;101501.00;;;;5089533;28;20221;-82
2023/06/10 09:03:41;;;;;;;4.45;3.50;;;;;32.80;101508.00;;;;5091277;28;20667;-83
2023/06/10 09:06:09;;;;;;;4.47;3.72;;;;;32.90;101511.00;;;;5090461;28;20201;-83
2023/06/10 09:08:37;;;;;;;4.05;2.78;;;;;33.00;101512.00;;;;5091668;28;20198;-82
2023/06/10 09:11:04;;;;;;;4.68;3.38;;;;;33.10;101504.00;;;;5089599;28;20206;-84
2023/06/10 09:13:32;;;;;;;4.90;3.28;;;;;33.20;101505.00;;;;5076041;28;20699;-83
2023/06/10 09:16:00;;;;;;;4.05;2.90;;;;;33.30;101500.00;;;;5076692;28;20205;-83
2023/06/10 09:18:28;;;;;;;3.95;3.47;;;;;33.40;101500.00;;;;5088755;28;20201;-82
2023/06/10 09:20:57;;;;;;;3.60;2.47;;;;;33.60;101501.00;;;;5089176;28;20205;-82
2023/06/10 09:23:25;;;;;;;5.45;3.22;;;;;33.70;101505.00;;;;5087652;28;20675;-81
2023/06/10 09:25:58;;;;;;;6.05;3.80;;;;;33.80;101501.00;;;;5088693;28;20198;-82
2023/06/10 09:28:26;;;;;;;3.83;2.88;;;;;33.90;101507.00;;;;5089369;28;20226;-81
2023/06/10 09:31:04;;;;;;;4.45;3.58;;;;;34.00;101507.00;;;;5091223;28;20194;-83
2023/06/10 09:33:32;;;;;;;4.95;3.40;;;;;34.20;101500.00;;;;5090270;28;20252;-81
2023/06/10 09:36:03;;;;;;;7.07;3.80;;;;;34.20;101499.00;;;;5090710;28;20200;-81
2023/06/10 09:38:35;;;;;;;4.68;3.30;;;;;34.30;101504.00;;;;5091219;28;20205;-80
2023/06/10 09:41:03;;;;;;;4.13;3.60;;;;;34.40;101509.00;;;;5091079;28;20196;-82
2023/06/10 09:43:42;;;;;;;4.40;3.47;;;;;34.40;101509.00;;;;5091246;28;20205;-80
2023/06/10 09:46:16;;;;;;;5.65;3.03;;;;;34.50;101502.00;;;;5088931;28;20198;-79
2023/06/10 09:48:45;;;;;;;4.43;3.47;;;;;34.70;101502.00;;;;5091181;28;20208;-80
2023/06/10 09:51:14;;;;;;;4.55;2.90;;;;;34.70;101499.00;;;;5088965;28;20216;-80
2023/06/10 09:53:41;;;;;;;4.32;3.33;;;;;34.80;101506.00;;;;5090692;28;20565;-81
2023/06/10 09:56:09;;;;;;;3.80;3.17;;;;;34.90;101506.00;;;;5085801;28;20201;-80
2023/06/10 09:58:37;;;;;;;3.15;2.85;;;;;34.90;101501.00;;;;5080920;28;20229;-81
2023/06/10 10:01:09;;;;;;;4.85;3.22;;;;;35.00;101494.00;;;;5084303;28;20627;-83
2023/06/10 10:03:46;;;;;;;4.20;2.85;;;;;35.00;101501.00;;;;5085966;28;20194;-84
2023/06/10 10:06:15;;;;;;;5.35;3.72;;;;;35.20;101500.00;;;;5089517;28;20209;-82
2023/06/10 10:08:44;;;;;;;4.97;3.75;;;;;35.30;101511.00;;;;5086869;28;20198;-83
2023/06/10 10:11:11;;;;;;;3.55;3.25;;;;;35.30;101498.00;;;;5085921;28;20578;-83
2023/06/10 10:13:39;;;;;;;4.13;3.28;;;;;35.40;101499.00;;;;5087054;28;20312;-82
2023/06/10 10:16:12;;;;;;;4.85;3.05;;;;;35.40;101492.00;;;;5090211;28;20547;-84
2023/06/10 10:18:43;;;;;;;4.38;3.45;;;;;35.40;101492.00;;;;5089117;28;20258;-83
2023/06/10 10:21:16;;;;;;;4.07;3.45;;;;;35.40;101492.00;;;;5087813;28;20195;-83
2023/06/10 10:23:52;;;;;;;4.25;3.60;;;;;35.50;101494.00;;;;5086160;28;20318;-83
2023/06/10 10:26:22;;;;;;;3.67;3.28;;;;;35.60;101487.00;;;;5087951;28;20651;-84
2023/06/10 10:28:58;;;;;;;3.90;3.42;;;;;35.60;101500.00;;;;5089527;28;20213;-85
2023/06/10 10:31:28;;;;;;;3.92;3.20;;;;;35.70;101503.00;;;;5088446;28;20200;-84
2023/06/10 10:33:59;;;;;;;4.78;3.30;;;;;35.70;101484.00;;;;5088706;28;20230;-83
2023/06/10 10:36:29;;;;;;;4.13;3.22;;;;;35.80;101484.00;;;;5089729;28;20202;-84
2023/06/10 10:38:57;;;;;;;5.40;3.20;;;;;35.90;101485.00;;;;5089750;28;20743;-83
2023/06/10 10:41:26;;;;;;;4.65;3.20;;;;;35.90;101479.00;;;;5089961;28;20656;-85
2023/06/10 10:43:54;;;;;;;3.53;3.17;;;;;36.00;101486.00;;;;5088497;28;20251;-84
2023/06/10 10:46:21;;;;;;;5.30;3.10;;;;;36.00;101486.00;;;;5087160;28;20204;-85
2023/06/10 10:48:54;;;;;;;4.45;3.40;;;;;36.00;101481.00;;;;5087109;28;20202;-83
2023/06/10 10:51:23;;;;;;;3.88;3.10;;;;;36.10;101478.00;;;;5087952;28;20667;-83
2023/06/10 10:54:13;;;;;;;3.72;3.42;;;;;36.00;101481.00;;;;5087813;28;20225;-84
2023/06/10 10:57:01;;;;;;;3.50;3.17;;;;;36.10;101474.00;;;;5084944;28;20243;-82
2023/06/10 10:59:45;;;;;;;4.03;3.17;;;;;36.00;101478.00;;;;5086659;28;20202;-84
2023/06/10 11:02:18;;;;;;;4.68;3.28;;;;;36.10;101473.00;;;;5088334;28;20221;-86
2023/06/10 11:04:47;;;;;;;3.13;2.83;;;;;36.20;101477.00;;;;5082350;28;20247;-82
2023/06/10 11:07:15;;;;;;;3.65;3.15;;;;;36.20;101467.00;;;;5088629;28;20200;-82
2023/06/10 11:09:59;;;;;;;4.55;3.20;;;;;36.10;101466.00;;;;5089929;28;20255;-83
2023/06/10 11:12:27;;;;;;;3.33;3.03;;;;;36.20;101463.00;;;;5067818;28;20676;-83
2023/06/10 11:14:56;;;;;;;4.38;3.58;;;;;36.20;101462.00;;;;5069579;28;20226;-84
2023/06/10 11:17:24;;;;;;;5.00;3.42;;;;;36.20;101459.00;;;;5086334;28;20206;-82
2023/06/10 11:19:51;;;;;;;4.22;3.45;;;;;36.20;101454.00;;;;5088431;28;20664;-83
2023/06/10 11:22:19;;;;;;;4.95;3.30;;;;;36.20;101448.00;;;;5089727;28;20209;-82
2023/06/10 11:24:51;;;;;;;5.05;3.60;;;;;36.20;101459.00;;;;5089047;28;20197;-83
2023/06/10 11:27:20;;;;;;;4.18;3.35;;;;;36.30;101455.00;;;;5089835;28;20206;-84
2023/06/10 11:29:58;;;;;;;4.20;3.60;;;;;36.20;101452.00;;;;5089333;28;20196;-83
2023/06/10 11:32:35;;;;;;;4.07;3.70;;;;;36.20;101450.00;;;;5126132;27;20559;-81
2023/06/10 11:35:05;;;;;;;4.00;3.50;;;;;36.30;101452.00;;;;5126596;27;20197;-81
2023/06/10 11:37:32;;;;;;;3.55;3.25;;;;;36.30;101452.00;;;;5126648;27;20205;-83
2023/06/10 11:40:00;;;;;;;3.63;3.28;;;;;36.30;101449.00;;;;5126370;27;20208;-81
2023/06/10 11:42:28;;;;;;;4.60;3.60;;;;;36.30;101446.00;;;;5126023;27;20200;-81
2023/06/10 11:44:55;;;;;;;3.92;3.63;;;;;36.30;101449.00;;;;5116327;27;20201;-83
2023/06/10 11:47:23;;;;;;;4.40;3.63;;;;;36.30;101449.00;;;;5105759;28;20286;-82
2023/06/10 11:49:59;;;;;;;3.50;3.20;;;;;36.30;101443.00;;;;5106465;28;20208;-81
2023/06/10 11:52:28;;;;;;;4.43;2.92;;;;;36.40;101446.00;;;;5108334;28;20696;-83
2023/06/10 11:54:56;;;;;;;4.40;3.55;;;;;36.40;101446.00;;;;5125745;27;20254;-81
2023/06/10 11:57:23;;;;;;;3.83;3.28;;;;;36.40;101440.00;;;;5126556;27;20248;-81
2023/06/10 11:59:50;;;;;;;6.13;3.58;;;;;36.40;101438.00;;;;5126105;27;20196;-81
2023/06/10 12:02:18;;;;;;;5.40;3.50;;;;;36.40;101435.00;;;;5112092;27;20278;-82
2023/06/10 12:04:46;;;;;;;4.13;3.45;;;;;36.40;101441.00;;;;5105383;28;20667;-82
2023/06/10 12:07:22;;;;;;;3.97;3.42;;;;;36.40;101431.00;;;;5105703;28;20208;-81
2023/06/10 12:10:00;;;;;;;5.05;3.72;;;;;36.40;101433.00;;;;5106153;28;20219;-82
2023/06/10 12:12:28;;;;;;;3.80;3.42;;;;;36.50;101429.00;;;;5105371;28;20232;-82
2023/06/10 12:14:57;;;;;;;3.28;2.97;;;;;36.50;101420.00;;;;5105754;28;20250;-81